createdAt,value
2016-08-09T00:00:08.932Z,16.51
2016-08-09T00:01:08.914Z,16.56
2016-08-09T00:02:08.889Z,16.51
2016-08-09T00:03:08.871Z,16.56
2016-08-09T00:04:08.846Z,16.6
2016-08-09T00:05:08.828Z,16.58
2016-08-09T00:06:08.799Z,16.6
2016-08-09T00:07:08.783Z,16.56
2016-08-09T00:08:08.758Z,16.57
2016-08-09T00:09:08.734Z,16.57
2016-08-09T00:10:08.716Z,16.6
2016-08-09T00:11:08.693Z,16.58
2016-08-09T00:12:08.672Z,16.53
2016-08-09T00:13:08.649Z,16.51
2016-08-09T00:14:08.626Z,16.61
2016-08-09T00:15:08.607Z,16.53
2016-08-09T00:16:08.585Z,16.57
2016-08-09T00:17:08.567Z,16.61
2016-08-09T00:18:08.547Z,16.56
2016-08-09T00:19:08.520Z,16.5
2016-08-09T00:20:08.498Z,16.42
2016-08-09T00:21:08.478Z,16.47
2016-08-09T00:22:08.459Z,16.47
2016-08-09T00:23:08.434Z,16.43
2016-08-09T00:24:08.413Z,16.42
2016-08-09T00:25:08.388Z,16.49
2016-08-09T00:26:08.378Z,16.43
2016-08-09T00:27:08.349Z,16.41
2016-08-09T00:28:08.328Z,16.46
2016-08-09T00:29:08.307Z,16.35
2016-08-09T00:30:08.286Z,16.41
2016-08-09T00:31:08.261Z,16.38
2016-08-09T00:32:08.241Z,16.33
2016-08-09T00:33:08.216Z,16.32
2016-08-09T00:34:08.195Z,16.39
2016-08-09T00:35:08.176Z,16.35
2016-08-09T00:36:08.157Z,16.36
2016-08-09T00:37:08.134Z,16.42
2016-08-09T00:38:08.124Z,16.35
2016-08-09T00:39:08.089Z,16.42
2016-08-09T00:40:08.082Z,16.35
2016-08-09T00:41:08.048Z,16.39
2016-08-09T00:42:08.022Z,16.35
2016-08-09T00:43:08.007Z,16.35
2016-08-09T00:44:07.982Z,16.36
2016-08-09T00:45:07.959Z,16.38
2016-08-09T00:46:07.936Z,16.38
2016-08-09T00:48:07.895Z,16.39
2016-08-09T00:49:07.873Z,16.31
2016-08-09T00:50:07.854Z,16.38
2016-08-09T00:51:07.829Z,16.32
2016-08-09T00:52:07.808Z,16.35
2016-08-09T00:53:07.785Z,16.26
2016-08-09T00:54:07.766Z,16.23
2016-08-09T00:55:07.743Z,16.28
2016-08-09T00:56:07.722Z,16.26
2016-08-09T00:57:07.697Z,16.31
2016-08-09T00:58:07.675Z,16.39
2016-08-09T00:59:07.662Z,16.36
2016-08-09T01:00:07.634Z,16.31
2016-08-09T01:01:07.612Z,16.32
2016-08-09T01:02:07.589Z,16.35
2016-08-09T01:03:08.268Z,16.33
2016-08-09T01:04:07.549Z,16.23
2016-08-09T01:05:07.527Z,16.33
2016-08-09T01:06:07.503Z,16.31
2016-08-09T01:07:07.479Z,16.33
2016-08-09T01:08:07.460Z,16.24
2016-08-09T01:09:07.440Z,16.33
2016-08-09T01:10:07.420Z,16.33
2016-08-09T01:11:07.394Z,16.33
2016-08-09T01:12:07.372Z,16.17
2016-08-09T01:13:07.352Z,16.23
2016-08-09T01:14:07.327Z,16.26
2016-08-09T01:15:07.305Z,16.23
2016-08-09T01:16:07.289Z,16.26
2016-08-09T01:17:07.276Z,16.23
2016-08-09T01:18:07.246Z,16.17
2016-08-09T01:19:07.222Z,16.2
2016-08-09T01:20:07.200Z,16.21
2016-08-09T01:21:07.181Z,16.23
2016-08-09T01:22:07.155Z,16.23
2016-08-09T01:23:07.131Z,16.21
2016-08-09T01:24:07.110Z,16.17
2016-08-09T01:25:07.095Z,16.26
2016-08-09T01:26:07.073Z,16.24
2016-08-09T01:27:07.050Z,16.24
2016-08-09T01:28:07.026Z,16.23
2016-08-09T01:29:07.009Z,16.26
2016-08-09T01:30:07.013Z,16.29
2016-08-09T01:31:06.959Z,16.24
2016-08-09T01:32:06.936Z,16.16
2016-08-09T01:33:06.914Z,16.2
2016-08-09T01:34:06.896Z,16.33
2016-08-09T01:35:06.891Z,16.32
2016-08-09T01:36:06.857Z,16.29
2016-08-09T01:37:06.830Z,16.31
2016-08-09T01:38:06.822Z,16.17
2016-08-09T01:39:06.787Z,16.33
2016-08-09T01:40:06.772Z,16.32
2016-08-09T01:41:06.741Z,16.31
2016-08-09T01:42:06.731Z,16.28
2016-08-09T01:43:06.700Z,16.16
2016-08-09T01:44:06.676Z,16.21
2016-08-09T01:45:06.657Z,16.23
2016-08-09T01:46:06.635Z,16.21
2016-08-09T01:47:06.610Z,16.24
2016-08-09T01:48:06.590Z,16.26
2016-08-09T01:49:06.568Z,16.2
2016-08-09T01:50:06.548Z,16.24
2016-08-09T01:51:06.524Z,16.24
2016-08-09T01:52:06.505Z,16.32
2016-08-09T01:53:06.480Z,16.29
2016-08-09T01:54:06.462Z,16.24
2016-08-09T01:55:06.439Z,16.28
2016-08-09T01:56:06.413Z,16.13
2016-08-09T01:57:06.404Z,16.2
2016-08-09T01:58:06.373Z,16.2
2016-08-09T01:59:06.353Z,16.29
2016-08-09T02:00:06.332Z,16.17
2016-08-09T02:01:06.324Z,16.23
2016-08-09T02:02:06.294Z,16.23
2016-08-09T02:03:06.267Z,16.24
2016-08-09T02:04:06.244Z,16.15
2016-08-09T02:05:06.221Z,16.13
2016-08-09T02:06:06.198Z,16.16
2016-08-09T02:07:06.185Z,16.13
2016-08-09T02:08:06.156Z,16.12
2016-08-09T02:09:06.133Z,16.09
2016-08-09T02:10:06.113Z,16.09
2016-08-09T02:11:06.091Z,16.05
2016-08-09T02:12:06.078Z,16.08
2016-08-09T02:13:06.050Z,16.15
2016-08-09T02:14:06.023Z,16.08
2016-08-09T02:15:06.005Z,16.05
2016-08-09T02:16:05.983Z,16.04
2016-08-09T02:17:06.653Z,16.05
2016-08-09T02:18:05.944Z,16.09
2016-08-09T02:19:05.916Z,16.09
2016-08-09T02:20:05.899Z,16.05
2016-08-09T02:21:05.872Z,16.09
2016-08-09T02:22:05.849Z,16.05
2016-08-09T02:23:05.831Z,16.05
2016-08-09T02:24:06.498Z,16.09
2016-08-09T02:25:05.788Z,16.02
2016-08-09T02:26:05.765Z,16.05
2016-08-09T02:27:05.745Z,16.08
2016-08-09T02:28:05.720Z,16.05
2016-08-09T02:29:05.701Z,16.09
2016-08-09T02:30:05.679Z,16.09
2016-08-09T02:31:05.657Z,16.04
2016-08-09T02:32:05.636Z,16.05
2016-08-09T02:33:05.616Z,16.05
2016-08-09T02:34:05.599Z,16.08
2016-08-09T02:35:05.571Z,16.08
2016-08-09T02:36:05.549Z,16.08
2016-08-09T02:37:05.531Z,16.08
2016-08-09T02:38:05.503Z,16.08
2016-08-09T02:39:05.483Z,16.08
2016-08-09T02:40:05.460Z,16.1
2016-08-09T02:41:05.443Z,16.08
2016-08-09T02:42:06.112Z,16.08
2016-08-09T02:43:05.397Z,16.05
2016-08-09T02:44:05.372Z,16.1
2016-08-09T02:45:05.351Z,16.04
2016-08-09T02:46:05.329Z,16.1
2016-08-09T02:47:05.309Z,16.08
2016-08-09T02:48:05.285Z,16.08
2016-08-09T02:49:05.957Z,16.12
2016-08-09T02:50:05.241Z,16.1
2016-08-09T02:51:05.228Z,16.08
2016-08-09T02:52:05.200Z,16.13
2016-08-09T02:53:05.181Z,16.08
2016-08-09T02:54:05.154Z,16.1
2016-08-09T02:55:05.131Z,16.1
2016-08-09T02:56:05.120Z,16.12
2016-08-09T02:57:05.093Z,16.17
2016-08-09T02:58:05.067Z,16.21
2016-08-09T02:59:05.050Z,16.23
2016-08-09T03:00:05.034Z,16.17
2016-08-09T03:01:05.008Z,16.24
2016-08-09T03:02:04.979Z,16.21
2016-08-09T03:03:04.957Z,16.29
2016-08-09T03:04:04.936Z,16.24
2016-08-09T03:05:04.914Z,16.12
2016-08-09T03:06:04.894Z,16.29
2016-08-09T03:07:04.875Z,16.24
2016-08-09T03:08:04.860Z,16.29
2016-08-09T03:09:04.828Z,16.31
2016-08-09T03:10:04.810Z,16.24
2016-08-09T03:11:04.788Z,16.24
2016-08-09T03:12:04.772Z,16.32
2016-08-09T03:13:04.745Z,16.38
2016-08-09T03:14:04.719Z,16.35
2016-08-09T03:15:04.701Z,16.29
2016-08-09T03:16:04.678Z,16.29
2016-08-09T03:17:04.669Z,16.32
2016-08-09T03:18:04.634Z,16.2
2016-08-09T03:19:04.620Z,16.28
2016-08-09T03:20:04.588Z,16.24
2016-08-09T03:21:04.565Z,16.17
2016-08-09T03:22:04.548Z,16.29
2016-08-09T03:23:04.527Z,16.32
2016-08-09T03:24:04.505Z,16.33
2016-08-09T03:25:04.488Z,16.33
2016-08-09T03:26:04.461Z,16.32
2016-08-09T03:27:04.440Z,16.32
2016-08-09T03:28:04.414Z,16.29
2016-08-09T03:29:04.398Z,16.35
2016-08-09T03:30:04.373Z,16.33
2016-08-09T03:31:04.354Z,16.32
2016-08-09T03:32:04.331Z,16.26
2016-08-09T03:33:04.309Z,16.17
2016-08-09T03:34:04.292Z,16.23
2016-08-09T03:35:04.268Z,16.13
2016-08-09T03:36:04.243Z,16.21
2016-08-09T03:37:04.228Z,16.28
2016-08-09T03:38:04.201Z,16.28
2016-08-09T03:39:04.183Z,16.23
2016-08-09T03:40:04.157Z,16.2
2016-08-09T03:41:04.137Z,16.24
2016-08-09T03:42:04.112Z,16.21
2016-08-09T03:43:04.091Z,16.15
2016-08-09T03:44:04.072Z,16.2
2016-08-09T03:45:04.048Z,16.23
2016-08-09T03:46:04.026Z,16.21
2016-08-09T03:47:04.013Z,16.24
2016-08-09T03:48:03.985Z,16.21
2016-08-09T03:49:03.963Z,16.21
2016-08-09T03:50:03.942Z,16.2
2016-08-09T03:51:03.922Z,16.23
2016-08-09T03:52:03.894Z,16.28
2016-08-09T03:53:03.876Z,16.21
2016-08-09T03:54:03.906Z,16.15
2016-08-09T03:55:03.832Z,16.24
2016-08-09T03:56:03.810Z,16.2
2016-08-09T03:57:03.789Z,16.16
2016-08-09T03:58:03.769Z,16.13
2016-08-09T03:59:03.748Z,16.23
2016-08-09T04:00:03.723Z,16.31
2016-08-09T04:01:03.709Z,16.24
2016-08-09T04:02:03.683Z,16.17
2016-08-09T04:03:03.659Z,16.32
2016-08-09T04:04:03.638Z,16.21
2016-08-09T04:05:03.618Z,16.24
2016-08-09T04:06:03.602Z,16.15
2016-08-09T04:07:03.575Z,16.32
2016-08-09T04:08:03.554Z,16.31
2016-08-09T04:09:03.527Z,16.35
2016-08-09T04:10:03.512Z,16.31
2016-08-09T04:11:03.498Z,16.38
2016-08-09T04:12:03.465Z,16.29
2016-08-09T04:13:03.444Z,16.35
2016-08-09T04:14:06.134Z,16.33
2016-08-09T04:15:03.402Z,16.28
2016-08-09T04:16:03.377Z,16.31
2016-08-09T04:17:03.356Z,16.29
2016-08-09T04:18:03.330Z,16.28
2016-08-09T04:19:03.314Z,16.21
2016-08-09T04:20:03.290Z,16.38
2016-08-09T04:21:03.275Z,16.23
2016-08-09T04:22:03.250Z,16.33
2016-08-09T04:23:03.224Z,16.31
2016-08-09T04:24:03.204Z,16.33
2016-08-09T04:25:03.178Z,16.36
2016-08-09T04:26:03.223Z,16.24
2016-08-09T04:27:03.726Z,16.16
2016-08-09T04:28:03.114Z,16.21
2016-08-09T04:29:03.095Z,16.28
2016-08-09T04:30:03.080Z,16.21
2016-08-09T04:31:03.131Z,16.21
2016-08-09T04:32:03.030Z,16.17
2016-08-09T04:33:03.008Z,16.16
2016-08-09T04:34:02.990Z,16.21
2016-08-09T04:35:02.962Z,16.16
2016-08-09T04:36:02.945Z,16.26
2016-08-09T04:37:02.925Z,16.24
2016-08-09T04:38:03.043Z,16.24
2016-08-09T04:39:02.879Z,16.29
2016-08-09T04:40:02.857Z,16.33
2016-08-09T04:41:02.837Z,16.31
2016-08-09T04:42:02.820Z,16.33
2016-08-09T04:43:02.801Z,16.38
2016-08-09T04:44:02.956Z,16.35
2016-08-09T04:45:02.811Z,16.38
2016-08-09T04:46:02.729Z,16.42
2016-08-09T04:47:02.707Z,16.36
2016-08-09T04:48:02.694Z,16.39
2016-08-09T04:49:02.664Z,16.38
2016-08-09T04:50:02.646Z,16.36
2016-08-09T04:51:02.622Z,16.39
2016-08-09T04:52:02.601Z,16.35
2016-08-09T04:53:02.581Z,16.28
2016-08-09T04:54:02.559Z,16.39
2016-08-09T04:55:02.538Z,16.36
2016-08-09T04:56:02.847Z,16.39
2016-08-09T04:57:02.571Z,16.33
2016-08-09T04:58:02.532Z,16.23
2016-08-09T04:59:02.450Z,16.15
2016-08-09T05:00:02.435Z,16.21
2016-08-09T05:01:02.408Z,16.24
2016-08-09T05:02:02.386Z,16.15
2016-08-09T05:03:02.447Z,16.13
2016-08-09T05:04:02.395Z,16.05
2016-08-09T05:05:02.444Z,16.05
2016-08-09T05:06:02.367Z,16.08
2016-08-09T05:07:02.324Z,16.04
2016-08-09T05:08:02.252Z,16.09
2016-08-09T05:09:02.526Z,15.94
2016-08-09T05:10:02.224Z,16
2016-08-09T05:11:02.183Z,16.01
2016-08-09T05:12:02.232Z,15.9
2016-08-09T05:13:02.144Z,15.91
2016-08-09T05:14:02.119Z,15.92
2016-08-09T05:15:02.104Z,16
2016-08-09T05:16:02.765Z,16
2016-08-09T05:17:02.060Z,16
2016-08-09T05:18:02.037Z,15.98
2016-08-09T05:19:02.009Z,16.01
2016-08-09T05:20:01.992Z,16.09
2016-08-09T05:21:01.968Z,16.1
2016-08-09T05:22:01.948Z,16.1
2016-08-09T05:23:01.922Z,16.05
2016-08-09T05:24:02.596Z,16.09
2016-08-09T05:25:01.898Z,16.09
2016-08-09T05:26:01.861Z,16.12
2016-08-09T05:27:01.835Z,16.05
2016-08-09T05:28:01.815Z,16.12
2016-08-09T05:29:01.802Z,16.12
2016-08-09T05:30:01.783Z,16.02
2016-08-09T05:31:01.747Z,16.04
2016-08-09T05:32:01.730Z,16.08
2016-08-09T05:34:01.689Z,16.09
2016-08-09T05:35:02.366Z,16.08
2016-08-09T05:36:01.647Z,16.09
2016-08-09T05:37:01.730Z,16.09
2016-08-09T05:38:01.600Z,16.09
2016-08-09T05:39:01.583Z,16.01
2016-08-09T05:40:01.588Z,16.01
2016-08-09T05:41:01.538Z,16.09
2016-08-09T05:42:01.513Z,16.04
2016-08-09T05:43:01.529Z,16.05
2016-08-09T05:44:01.470Z,16.09
2016-08-09T05:45:01.454Z,16.09
2016-08-09T05:46:01.435Z,16.1
2016-08-09T05:47:01.407Z,16.21
2016-08-09T05:49:01.370Z,16.12
2016-08-09T05:50:01.362Z,16.1
2016-08-09T05:51:01.325Z,16.12
2016-08-09T05:52:01.303Z,16.08
2016-08-09T05:53:01.283Z,16.08
2016-08-09T05:54:01.329Z,16.02
2016-08-09T05:55:01.248Z,16.01
2016-08-09T05:56:01.212Z,15.95
2016-08-09T05:57:01.627Z,15.95
2016-08-09T05:58:01.180Z,16.04
2016-08-09T05:59:01.155Z,16
2016-08-09T06:00:01.134Z,15.97
2016-08-09T06:01:01.106Z,16
2016-08-09T06:02:01.089Z,16.01
2016-08-09T06:03:01.067Z,16.08
2016-08-09T06:04:01.043Z,16.05
2016-08-09T06:05:01.024Z,16.08
2016-08-09T06:06:01.283Z,16.1
2016-08-09T06:07:00.999Z,16.1
2016-08-09T06:08:00.997Z,16.21
2016-08-09T06:09:00.945Z,16.26
2016-08-09T06:10:00.923Z,16.36
2016-08-09T06:11:00.904Z,16.39
2016-08-09T06:12:00.906Z,16.42
2016-08-09T06:13:00.989Z,16.47
2016-08-09T06:14:00.845Z,16.39
2016-08-09T06:15:00.824Z,16.5
2016-08-09T06:16:00.807Z,16.54
2016-08-09T06:17:00.814Z,16.57
2016-08-09T06:18:00.921Z,16.64
2016-08-09T06:19:01.478Z,16.69
2016-08-09T06:20:01.003Z,16.84
2016-08-09T06:21:00.710Z,16.81
2016-08-09T06:22:00.685Z,16.84
2016-08-09T06:23:00.667Z,17.02
2016-08-09T06:24:00.685Z,16.93
2016-08-09T06:25:00.634Z,16.99
2016-08-09T06:26:00.702Z,17.01
2016-08-09T06:27:00.597Z,16.99
2016-08-09T06:28:00.578Z,17.06
2016-08-09T06:29:00.627Z,17.05
2016-08-09T06:30:00.539Z,17.12
2016-08-09T06:31:00.521Z,17.19
2016-08-09T06:32:01.717Z,17.33
2016-08-09T06:33:00.492Z,17.42
2016-08-09T06:34:00.468Z,17.51
2016-08-09T06:35:00.450Z,17.7
2016-08-09T06:36:00.430Z,17.79
2016-08-09T06:37:00.504Z,17.83
2016-08-09T06:38:00.679Z,17.94
2016-08-09T06:39:00.729Z,17.97
2016-08-09T06:40:00.450Z,17.95
2016-08-09T06:41:00.344Z,17.98
2016-08-09T06:42:00.330Z,17.89
2016-08-09T06:43:00.330Z,17.79
2016-08-09T06:44:00.517Z,17.82
2016-08-09T06:45:00.601Z,17.82
2016-08-09T06:46:00.258Z,17.79
2016-08-09T06:47:00.240Z,17.89
2016-08-09T06:48:00.226Z,17.86
2016-08-09T06:49:00.208Z,17.82
2016-08-09T06:53:00.133Z,17.8
2016-08-09T06:54:00.125Z,17.87
2016-08-09T06:55:00.383Z,17.89
2016-08-09T06:56:00.125Z,17.82
2016-08-09T06:57:00.898Z,17.8
2016-08-09T06:58:00.536Z,17.82
2016-08-09T06:59:00.033Z,17.83
2016-08-09T07:00:00.289Z,17.9
2016-08-09T07:01:00.320Z,17.82
2016-08-09T07:02:00.170Z,17.95
2016-08-09T07:03:00.068Z,17.86
2016-08-09T07:03:59.997Z,17.92
2016-08-09T07:05:00.276Z,17.78
2016-08-09T07:06:01.841Z,17.9
2016-08-09T07:07:00.489Z,17.8
2016-08-09T07:07:59.911Z,17.9
2016-08-09T07:09:00.526Z,18
2016-08-09T07:09:59.843Z,17.94
2016-08-09T07:11:00.635Z,17.94
2016-08-09T07:11:59.790Z,17.79
2016-08-09T07:12:59.777Z,17.85
2016-08-09T07:13:59.758Z,17.79
2016-08-09T07:14:59.743Z,17.92
2016-08-09T07:15:59.719Z,17.92
2016-08-09T07:17:00.082Z,18.04
2016-08-09T07:17:59.804Z,18.11
2016-08-09T07:18:59.678Z,18.16
2016-08-09T07:19:59.679Z,18.22
2016-08-09T07:20:59.880Z,18.29
2016-08-09T07:22:00.735Z,18.29
2016-08-09T07:22:59.643Z,18.49
2016-08-09T07:24:01.695Z,18.41
2016-08-09T07:25:00.371Z,18.55
2016-08-09T07:26:00.076Z,18.55
2016-08-09T07:26:59.665Z,18.53
2016-08-09T07:27:59.618Z,18.65
2016-08-09T07:28:59.508Z,18.63
2016-08-09T07:29:59.486Z,18.83
2016-08-09T07:30:59.563Z,18.89
2016-08-09T07:31:59.455Z,18.96
2016-08-09T07:32:59.518Z,18.96
2016-08-09T07:34:00.738Z,19.02
2016-08-09T07:34:59.424Z,19.08
2016-08-09T07:35:59.516Z,19.16
2016-08-09T07:36:59.384Z,19.21
2016-08-09T07:37:59.373Z,19.12
2016-08-09T07:39:00.047Z,19.18
2016-08-09T07:39:59.638Z,19.29
2016-08-09T07:41:02.650Z,19.29
2016-08-09T07:41:59.308Z,19.18
2016-08-09T07:42:59.306Z,19.22
2016-08-09T07:43:59.300Z,19.24
2016-08-09T07:44:59.273Z,19.19
2016-08-09T07:45:59.256Z,19.19
2016-08-09T07:46:59.236Z,19.29
2016-08-09T07:47:59.335Z,19.19
2016-08-09T07:48:59.728Z,19.27
2016-08-09T07:49:59.450Z,19.21
2016-08-09T07:50:59.282Z,19.24
2016-08-09T07:51:59.174Z,19.22
2016-08-09T07:52:59.155Z,19.19
2016-08-09T07:53:59.213Z,19.29
2016-08-09T07:54:59.119Z,19.29
2016-08-09T07:55:59.213Z,19.24
2016-08-09T07:57:00.403Z,19.39
2016-08-09T07:58:00.499Z,19.44
2016-08-09T07:59:01.835Z,19.48
2016-08-09T07:59:59.048Z,19.47
2016-08-09T08:01:00.197Z,19.67
2016-08-09T08:01:59.761Z,19.67
2016-08-09T08:03:00.518Z,19.82
2016-08-09T08:04:00.767Z,19.91
2016-08-09T08:04:59.792Z,19.92
2016-08-09T08:05:59.778Z,19.94
2016-08-09T08:06:59.840Z,19.92
2016-08-09T08:07:59.702Z,19.82
2016-08-09T08:08:58.926Z,19.86
2016-08-09T08:09:58.907Z,19.88
2016-08-09T08:10:58.896Z,19.99
2016-08-09T08:11:59.043Z,20.18
2016-08-09T08:12:58.871Z,20.25
2016-08-09T08:13:58.884Z,20.37
2016-08-09T08:14:58.962Z,20.19
2016-08-09T08:15:58.831Z,20.24
2016-08-09T08:16:58.817Z,20.32
2016-08-09T08:17:59.964Z,20.36
2016-08-09T08:18:59.608Z,20.39
2016-08-09T08:20:00.533Z,20.48
2016-08-09T08:20:59.738Z,20.62
2016-08-09T08:21:59.446Z,20.52
2016-08-09T08:22:58.893Z,20.65
2016-08-09T08:24:00.125Z,20.74
2016-08-09T08:24:59.030Z,20.82
2016-08-09T08:25:59.392Z,20.84
2016-08-09T08:26:59.558Z,20.84
2016-08-09T08:27:58.928Z,20.93
2016-08-09T08:28:58.671Z,20.97
2016-08-09T08:29:59.396Z,21.05
2016-08-09T08:30:59.030Z,21.12
2016-08-09T08:32:00.718Z,21.07
2016-08-09T08:33:00.194Z,20.99
2016-08-09T08:34:00.429Z,20.97
2016-08-09T08:35:00.355Z,20.88
2016-08-09T08:35:59.010Z,20.96
2016-08-09T08:37:00.525Z,21.09
2016-08-09T08:37:58.871Z,21.21
2016-08-09T08:38:59.636Z,21.43
2016-08-09T08:39:59.540Z,21.52
2016-08-09T08:40:59.531Z,21.73
2016-08-09T08:41:58.940Z,21.79
2016-08-09T08:42:58.639Z,21.83
2016-08-09T08:43:59.833Z,21.93
2016-08-09T08:44:59.328Z,21.82
2016-08-09T08:45:58.537Z,21.93
2016-08-09T08:46:58.632Z,22.06
2016-08-09T08:47:59.637Z,22.13
2016-08-09T08:48:58.574Z,22.17
2016-08-09T08:49:58.440Z,22.25
2016-08-09T08:50:58.419Z,22.3
2016-08-09T08:51:58.410Z,22.35
2016-08-09T08:52:58.507Z,22.53
2016-08-09T08:53:58.515Z,22.57
2016-08-09T08:54:58.981Z,22.63
2016-08-09T08:55:58.402Z,22.59
2016-08-09T08:56:59.543Z,22.63
2016-08-09T08:57:58.836Z,22.62
2016-08-09T08:58:58.379Z,22.38
2016-08-09T08:59:58.735Z,22.45
2016-08-09T09:00:59.942Z,22.62
2016-08-09T09:01:58.725Z,22.7
2016-08-09T09:02:58.996Z,22.78
2016-08-09T09:03:58.284Z,22.9
2016-08-09T09:04:58.692Z,22.91
2016-08-09T09:05:58.339Z,22.88
2016-08-09T09:06:58.789Z,23
2016-08-09T09:08:00.299Z,23.15
2016-08-09T09:08:59.159Z,23.03
2016-08-09T09:09:58.242Z,22.9
2016-08-09T09:10:58.304Z,22.87
2016-08-09T09:11:58.226Z,22.69
2016-08-09T09:12:58.422Z,22.66
2016-08-09T09:13:58.837Z,22.69
2016-08-09T09:14:58.626Z,22.76
2016-08-09T09:15:58.564Z,22.91
2016-08-09T09:16:58.174Z,22.96
2016-08-09T09:17:59.341Z,23.23
2016-08-09T09:19:00.167Z,23.21
2016-08-09T09:19:58.857Z,23.17
2016-08-09T09:20:58.192Z,23.27
2016-08-09T09:21:59.318Z,23.58
2016-08-09T09:22:58.174Z,23.65
2016-08-09T09:23:58.123Z,23.59
2016-08-09T09:24:58.759Z,23.76
2016-08-09T09:25:58.840Z,23.83
2016-08-09T09:26:58.078Z,23.58
2016-08-09T09:27:58.892Z,23.5
2016-08-09T09:28:58.060Z,23.27
2016-08-09T09:29:58.190Z,23.24
2016-08-09T09:30:58.241Z,23.17
2016-08-09T09:31:58.294Z,23.02
2016-08-09T09:32:58.807Z,22.68
2016-08-09T09:34:58.000Z,22.18
2016-08-09T09:35:58.971Z,21.83
2016-08-09T09:36:58.945Z,21.5
2016-08-09T09:37:57.953Z,21.32
2016-08-09T09:38:57.938Z,20.96
2016-08-09T09:39:58.465Z,20.74
2016-08-09T09:40:59.052Z,20.47
2016-08-09T09:41:57.897Z,20.39
2016-08-09T09:42:59.157Z,20.26
2016-08-09T09:43:58.177Z,20.28
2016-08-09T09:44:57.849Z,20.37
2016-08-09T09:45:58.262Z,20.48
2016-08-09T09:46:58.492Z,20.56
2016-08-09T09:47:57.893Z,20.75
2016-08-09T09:49:57.972Z,20.9
2016-08-09T09:50:57.834Z,20.85
2016-08-09T09:51:57.855Z,20.81
2016-08-09T09:52:57.835Z,20.78
2016-08-09T09:53:57.752Z,20.82
2016-08-09T09:54:59.272Z,20.85
2016-08-09T09:55:57.864Z,20.87
2016-08-09T09:56:58.044Z,20.84
2016-08-09T09:57:57.949Z,20.7
2016-08-09T09:58:57.667Z,20.7
2016-08-09T09:59:58.005Z,20.77
2016-08-09T10:00:57.839Z,20.78
2016-08-09T10:01:57.611Z,20.81
2016-08-09T10:02:57.612Z,20.82
2016-08-09T10:03:58.095Z,20.84
2016-08-09T10:04:57.643Z,20.8
2016-08-09T10:05:57.638Z,20.75
2016-08-09T10:06:57.553Z,20.75
2016-08-09T10:07:57.544Z,20.72
2016-08-09T10:08:57.522Z,20.59
2016-08-09T10:09:57.512Z,20.47
2016-08-09T10:10:58.288Z,20.29
2016-08-09T10:11:57.489Z,20.22
2016-08-09T10:12:58.427Z,20.19
2016-08-09T10:13:57.726Z,20.02
2016-08-09T10:14:57.439Z,19.92
2016-08-09T10:15:57.415Z,19.94
2016-08-09T10:16:57.570Z,19.96
2016-08-09T10:17:57.391Z,20
2016-08-09T10:18:57.390Z,20.06
2016-08-09T10:19:58.066Z,19.95
2016-08-09T10:20:58.347Z,20.16
2016-08-09T10:21:57.489Z,20.28
2016-08-09T10:22:57.322Z,20.37
2016-08-09T10:23:57.315Z,20.41
2016-08-09T10:24:57.421Z,20.52
2016-08-09T10:25:57.352Z,20.75
2016-08-09T10:26:57.979Z,20.85
2016-08-09T10:27:57.295Z,20.96
2016-08-09T10:28:57.850Z,21.02
2016-08-09T10:29:57.228Z,21.09
2016-08-09T10:30:57.252Z,20.92
2016-08-09T10:31:57.210Z,20.84
2016-08-09T10:32:57.185Z,20.84
2016-08-09T10:33:57.174Z,20.85
2016-08-09T10:34:57.162Z,20.72
2016-08-09T10:35:57.149Z,20.74
2016-08-09T10:36:57.885Z,20.67
2016-08-09T10:37:57.208Z,20.7
2016-08-09T10:38:57.721Z,20.6
2016-08-09T10:39:57.092Z,20.62
2016-08-09T10:40:57.928Z,20.59
2016-08-09T10:41:57.062Z,20.63
2016-08-09T10:42:57.049Z,20.67
2016-08-09T10:43:57.132Z,20.56
2016-08-09T10:44:57.016Z,20.56
2016-08-09T10:45:57.006Z,20.51
2016-08-09T10:46:57.332Z,20.34
2016-08-09T10:47:56.971Z,20.29
2016-08-09T10:48:56.981Z,20.19
2016-08-09T10:49:57.874Z,20.11
2016-08-09T10:50:57.270Z,19.99
2016-08-09T10:51:57.168Z,20
2016-08-09T10:52:57.306Z,19.92
2016-08-09T10:53:57.629Z,19.99
2016-08-09T10:54:57.654Z,19.95
2016-08-09T10:55:57.035Z,19.95
2016-08-09T10:56:56.830Z,20.07
2016-08-09T10:57:56.816Z,20
2016-08-09T10:58:56.798Z,19.95
2016-08-09T10:59:56.837Z,19.96
2016-08-09T11:00:56.764Z,20.09
2016-08-09T11:01:57.012Z,20.04
2016-08-09T11:02:56.729Z,20.09
2016-08-09T11:03:58.050Z,20.03
2016-08-09T11:04:56.877Z,19.94
2016-08-09T11:05:57.776Z,19.92
2016-08-09T11:06:56.684Z,19.99
2016-08-09T11:07:57.911Z,19.96
2016-08-09T11:08:56.692Z,19.94
2016-08-09T11:09:56.626Z,20.04
2016-08-09T11:10:57.366Z,20.02
2016-08-09T11:11:56.584Z,20.11
2016-08-09T11:12:56.749Z,20.24
2016-08-09T11:13:56.564Z,20.37
2016-08-09T11:14:56.540Z,20.4
2016-08-09T11:15:56.530Z,20.51
2016-08-09T11:16:56.538Z,20.47
2016-08-09T11:17:56.954Z,20.5
2016-08-09T11:18:57.702Z,20.55
2016-08-09T11:19:57.557Z,20.56
2016-08-09T11:20:57.746Z,20.59
2016-08-09T11:21:56.570Z,20.59
2016-08-09T11:22:56.422Z,20.75
2016-08-09T11:23:56.501Z,20.77
2016-08-09T11:24:56.990Z,20.77
2016-08-09T11:25:56.368Z,20.74
2016-08-09T11:26:56.359Z,20.87
2016-08-09T11:27:56.667Z,20.93
2016-08-09T11:28:56.413Z,20.92
2016-08-09T11:29:56.311Z,20.88
2016-08-09T11:30:56.296Z,20.85
2016-08-09T11:31:56.332Z,20.85
2016-08-09T11:32:57.213Z,20.81
2016-08-09T11:33:56.688Z,20.84
2016-08-09T11:34:56.786Z,20.82
2016-08-09T11:35:57.045Z,20.84
2016-08-09T11:36:56.304Z,20.72
2016-08-09T11:37:57.260Z,20.9
2016-08-09T11:38:57.908Z,20.88
2016-08-09T11:39:57.411Z,21.05
2016-08-09T11:40:57.075Z,21.02
2016-08-09T11:41:57.355Z,20.97
2016-08-09T11:42:56.657Z,20.9
2016-08-09T11:43:56.476Z,20.96
2016-08-09T11:44:56.604Z,20.99
2016-08-09T11:45:56.092Z,21.18
2016-08-09T11:46:56.061Z,21.2
2016-08-09T11:47:57.455Z,21.3
2016-08-09T11:48:56.034Z,21.32
2016-08-09T11:49:56.015Z,21.3
2016-08-09T11:50:56.012Z,21.21
2016-08-09T11:51:55.992Z,21.12
2016-08-09T11:52:57.565Z,21
2016-08-09T11:53:55.973Z,21.02
2016-08-09T11:54:55.947Z,20.95
2016-08-09T11:55:55.965Z,20.87
2016-08-09T11:56:56.064Z,20.92
2016-08-09T11:57:56.464Z,20.9
2016-08-09T11:58:56.323Z,20.93
2016-08-09T11:59:57.000Z,20.88
2016-08-09T12:00:56.999Z,20.87
2016-08-09T12:01:57.063Z,20.88
2016-08-09T12:02:56.425Z,20.9
2016-08-09T12:03:57.473Z,20.85
2016-08-09T12:04:56.986Z,20.84
2016-08-09T12:05:57.259Z,20.74
2016-08-09T12:06:56.968Z,20.7
2016-08-09T12:07:57.212Z,20.63
2016-08-09T12:08:56.594Z,20.58
2016-08-09T12:09:56.419Z,20.51
2016-08-09T12:10:55.851Z,20.44
2016-08-09T12:11:55.804Z,20.39
2016-08-09T12:12:56.667Z,20.29
2016-08-09T12:13:56.628Z,20.31
2016-08-09T12:14:56.663Z,20.18
2016-08-09T12:15:56.940Z,20.16
2016-08-09T12:16:55.713Z,20.03
2016-08-09T12:17:57.413Z,20.11
2016-08-09T12:18:56.505Z,20.03
2016-08-09T12:19:55.947Z,20.18
2016-08-09T12:20:56.194Z,20.18
2016-08-09T12:21:55.715Z,20.18
2016-08-09T12:22:56.446Z,20.18
2016-08-09T12:23:55.862Z,20.21
2016-08-09T12:24:55.669Z,20.18
2016-08-09T12:25:55.766Z,20.18
2016-08-09T12:26:56.701Z,20.04
2016-08-09T12:27:57.467Z,20.18
2016-08-09T12:28:56.185Z,20.19
2016-08-09T12:29:56.514Z,20.21
2016-08-09T12:30:56.625Z,20.16
2016-08-09T12:31:56.507Z,20.16
2016-08-09T12:32:55.477Z,20.26
2016-08-09T12:33:56.052Z,20.36
2016-08-09T12:34:56.295Z,20.48
2016-08-09T12:35:56.390Z,20.43
2016-08-09T12:36:56.427Z,20.41
2016-08-09T12:37:56.319Z,20.47
2016-08-09T12:38:56.526Z,20.5
2016-08-09T12:39:56.670Z,20.58
2016-08-09T12:40:55.856Z,20.58
2016-08-09T12:41:56.016Z,20.7
2016-08-09T12:42:55.990Z,20.7
2016-08-09T12:43:55.376Z,20.7
2016-08-09T12:44:55.853Z,20.67
2016-08-09T12:45:55.486Z,20.66
2016-08-09T12:46:55.798Z,20.72
2016-08-09T12:47:55.463Z,20.72
2016-08-09T12:48:55.290Z,20.81
2016-08-09T12:49:57.397Z,20.84
2016-08-09T12:50:55.532Z,20.82
2016-08-09T12:51:55.247Z,20.84
2016-08-09T12:52:55.805Z,20.74
2016-08-09T12:53:55.469Z,20.77
2016-08-09T12:54:57.169Z,20.69
2016-08-09T12:55:55.204Z,20.65
2016-08-09T12:56:56.024Z,20.7
2016-08-09T12:57:55.860Z,20.69
2016-08-09T12:58:55.065Z,20.67
2016-08-09T12:59:55.457Z,20.75
2016-08-09T13:00:55.147Z,20.78
2016-08-09T13:01:55.299Z,20.82
2016-08-09T13:02:56.358Z,20.72